Latest Weather Observations for Amberley

IDQ60901

Issued at 7:21 am EST Friday 4 September 2015 (issued every 10 minutes, with the page automatically refreshed every 10 minutes)

About weather observations | Map of Brisbane area stations | Latest observations for Brisbane area | Other Formats
Station Details ID: 040004 Name: AMBERLEY AMO Lat: -27.63 Lon: 152.71 Height: 24.2 m
Data from the previous 72 hours. | See also: Recent months at Amberley
Date/Time
EST
Tmp

°C
App
Tmp
°C
Dew
Point
°C
Rel
Hum
%
Delta-T

°C
Wind Press
QNH
hPa
Press
MSL
hPa
Rain
since
9 am
mm
Dir
 
Spd
km/h
Gust
km/h
Spd
kts
Gust
kts
04/07:00am 12.2 11.4 6.7 69 2.6 CALM 0 2 0 1 1017.5 - 0.0
04/06:30am 8.6 4.8 5.7 82 1.3 NNW 15 17 8 9 1016.9 - 0.0
04/06:00am 8.9 5.3 5.1 77 1.7 NW 13 15 7 8 1016.2 1016.1 0.0
04/05:30am 9.8 5.9 5.4 74 2.0 NW 15 17 8 9 1015.7 - 0.0
04/05:00am 9.8 5.5 5.4 74 2.0 NW 17 20 9 11 1015.5 - 0.0
04/04:30am 11.0 8.7 5.6 69 2.5 N 7 15 4 8 1015.1 - 0.0
04/04:00am 10.0 6.4 5.1 71 2.2 NNW 13 17 7 9 1015.1 - 0.0
04/03:30am 11.9 8.6 4.6 61 3.3 N 11 13 6 7 1015.1 - 0.0
04/03:00am 12.5 11.1 5.4 62 3.3 NNW 2 9 1 5 1015.0 1014.9 0.0
04/02:30am 13.1 10.6 4.6 56 3.9 SW 7 15 4 8 1015.0 - 0.0
04/02:00am 14.2 9.4 4.5 52 4.5 W 19 28 10 15 1015.0 - 0.0
04/01:30am 16.0 11.8 3.6 43 5.7 W 15 19 8 10 1015.5 - 0.0
04/01:00am 15.8 11.9 3.6 44 5.6 NNW 13 20 7 11 1015.8 - 0.0
04/12:30am 14.2 10.8 3.9 50 4.7 NNE 11 15 6 8 1015.4 - 0.0
04/12:00am 13.4 10.1 4.5 55 4.1 NE 11 17 6 9 1015.6 1015.5 0.0
 
Date/Time
EST
Tmp

°C
App
Tmp
°C
Dew
Point
°C
Rel
Hum
%
Delta-T

°C
Wind Press
QNH
hPa
Press
MSL
hPa
Rain
since
9 am
mm
Dir
 
Spd
km/h
Gust
km/h
Spd
kts
Gust
kts
03/11:30pm 17.0 11.6 2.4 37 6.6 WSW 20 32 11 17 1015.4 - 0.0
03/11:00pm 17.0 9.7 2.7 38 6.5 WSW 30 44 16 24 1015.4 - 0.0
03/10:30pm 16.0 10.8 3.6 43 5.7 WSW 20 30 11 16 1015.7 - 0.0
03/10:00pm 15.9 11.8 4.3 46 5.4 W 15 17 8 9 1015.7 - 0.0
03/09:30pm 17.0 12.8 3.9 41 6.1 W 15 22 8 12 1015.4 - 0.0
03/09:00pm 17.1 11.6 3.8 41 6.2 WSW 22 32 12 17 1014.7 1014.6 0.0
03/08:30pm 17.9 11.1 2.9 36 6.9 WSW 28 37 15 20 1014.4 - 0.0
03/08:00pm 18.7 13.2 1.7 32 7.7 WSW 20 33 11 18 1014.1 - 0.0
03/07:30pm 19.3 12.5 1.0 29 8.2 W 26 37 14 20 1013.5 - 0.0
03/07:00pm 19.7 13.0 1.4 29 8.3 W 26 35 14 19 1013.1 - 0.0
03/06:30pm 20.0 13.4 2.3 31 8.2 W 26 37 14 20 1012.8 - 0.0
03/06:00pm 20.3 13.7 2.2 30 8.4 W 26 35 14 19 1012.0 1011.9 0.0
03/05:30pm 21.4 13.9 1.1 26 9.3 W 30 43 16 23 1011.3 - 0.0
03/05:00pm 21.8 11.6 0.0 23 9.8 W 43 65 23 35 1010.6 - 0.0
03/04:30pm 23.0 15.3 -0.2 21 10.5 W 30 48 16 26 1010.0 - 0.0
03/04:07pm 23.6 14.9 -0.5 20 10.9 W 35 56 19 30 1009.7 - 0.0
03/04:00pm 23.8 13.9 -0.9 19 11.1 W 41 56 22 30 1009.5 - 0.0
03/03:43pm 24.3 15.0 -1.9 17 11.6 W 37 56 20 30 1009.5 - 0.0
03/03:30pm 24.1 14.8 -2.4 17 11.6 W 37 50 20 27 1009.4 - 0.0
03/03:00pm 24.0 13.4 -3.6 15 11.8 W 43 61 23 33 1009.2 1009.1 0.0
03/02:32pm 24.5 15.4 -3.7 15 12.1 W 35 54 19 29 1008.9 - 0.0
03/02:30pm 25.1 15.7 -3.1 15 12.3 WNW 37 54 20 29 1008.9 - 0.0
03/02:13pm 24.7 15.0 -5.3 13 12.5 W 37 56 20 30 1008.8 - 0.0
03/02:00pm 24.9 15.9 -2.7 16 12.1 W 35 52 19 28 1008.7 - 0.0
03/01:38pm 24.7 16.3 -0.9 18 11.6 WNW 33 52 18 28 1008.8 - 0.0
03/01:30pm 24.8 15.7 -0.7 18 11.6 WNW 37 46 20 25 1008.8 - 0.0
03/01:00pm 24.0 15.7 -0.5 19 11.1 WNW 33 52 18 28 1009.2 - 0.0
03/12:56pm 24.4 16.7 -0.4 19 11.3 WNW 30 52 16 28 1009.3 - 0.0
03/12:30pm 23.5 15.0 0.8 22 10.5 W 35 50 19 27 1010.2 - 0.0
03/12:17pm 23.0 14.3 1.7 24 10.0 WNW 37 50 20 27 1010.4 - 0.0
03/12:00pm 23.5 15.9 2.6 25 10.0 W 32 52 17 28 1010.7 1010.6 0.0
03/11:58am 23.5 15.9 3.0 26 9.9 W 32 52 17 28 1010.7 - 0.0
03/11:30am 22.3 14.5 2.8 27 9.3 W 33 46 18 25 1011.0 - 0.0
03/11:00am 21.5 13.8 3.3 30 8.7 W 33 50 18 27 1011.2 - 0.0
03/10:56am 21.7 14.6 3.6 30 8.7 W 30 50 16 27 1011.3 - 0.0
03/10:30am 21.1 14.7 5.1 35 7.9 W 28 41 15 22 1011.6 - 0.0
03/10:01am 21.0 15.1 7.4 41 7.0 W 28 46 15 25 1011.6 - 0.0
03/10:00am 20.9 14.7 7.8 42 6.8 W 30 46 16 25 1011.5 - 0.0
03/09:57am 20.8 15.0 8.1 44 6.6 W 28 46 15 25 1011.5 - 0.0
03/09:30am 20.4 17.3 14.4 68 3.5 W 24 30 13 16 1011.4 - 0.0
03/09:00am 21.4 20.5 17.7 79 2.3 NNW 19 26 10 14 1011.2 1011.1 2.8
03/08:30am 17.4 17.1 15.5 89 1.1 NNE 11 15 6 8 1011.3 - 2.8
03/08:00am 14.7 14.1 13.6 93 0.6 NE 9 13 5 7 1011.5 - 2.8
03/07:30am 13.9 14.5 13.0 94 0.5 NNE 2 7 1 4 1011.9 - 2.8
03/07:15am 13.8 13.0 12.9 94 0.5 NNE 9 11 5 6 1011.7 - 2.2
03/07:00am 13.8 12.9 12.7 93 0.6 N 9 11 5 6 1011.8 - 2.0
03/06:30am 13.0 13.3 12.3 95 0.4 NNE 2 9 1 5 1011.5 - 2.0
03/06:07am 13.1 13.8 12.2 94 0.5 CALM 0 7 0 4 1012.2 - 1.8
03/06:00am 13.0 12.9 12.1 94 0.5 S 4 9 2 5 1012.0 1011.9 1.8
03/05:30am 12.8 13.1 12.1 95 0.4 S 2 7 1 4 1011.7 - 1.8
03/05:00am 12.4 11.8 11.8 96 0.3 SSE 6 9 3 5 1011.1 - 1.4
03/04:56am 12.3 11.7 11.7 96 0.3 S 6 9 3 5 1011.2 - 1.4
03/04:30am 11.4 10.9 10.8 96 0.3 SSE 4 7 2 4 1011.4 - 1.4
03/04:16am 11.5 11.9 11.1 97 0.2 CALM 0 6 0 3 1011.2 - 1.4
03/04:00am 11.8 11.4 11.2 96 0.3 WSW 4 9 2 5 1011.2 - 1.4
03/03:30am 12.5 10.5 11.6 94 0.5 SW 13 15 7 8 1011.6 - 1.4
03/03:00am 12.7 12.1 11.8 94 0.5 SSW 6 7 3 4 1011.6 1011.5 1.4
03/02:30am 13.3 12.7 12.4 94 0.5 ESE 7 9 4 5 1012.4 - 1.4
03/02:00am 13.6 13.4 11.9 89 0.9 NE 4 11 2 6 1013.4 - 1.2
03/01:39am 13.4 12.9 12.1 92 0.7 NNW 6 20 3 11 1012.8 - 1.0
03/01:30am 13.8 12.6 11.6 86 1.2 NW 9 13 5 7 1014.8 - 0.8
03/01:00am 14.2 13.3 11.4 83 1.5 NW 7 15 4 8 1014.8 - 0.0
03/12:30am 14.2 12.5 10.0 76 2.2 ENE 9 15 5 8 1013.3 - 0.0
03/12:00am 14.6 13.5 9.8 73 2.5 S 6 9 3 5 1015.0 1014.9 0.0
 
Date/Time
EST
Tmp

°C
App
Tmp
°C
Dew
Point
°C
Rel
Hum
%
Delta-T

°C
Wind Press
QNH
hPa
Press
MSL
hPa
Rain
since
9 am
mm
Dir
 
Spd
km/h
Gust
km/h
Spd
kts
Gust
kts
02/11:30pm 14.3 14.2 9.6 73 2.4 CALM 0 0 0 0 1015.5 - 0.0
02/11:00pm 15.3 13.3 10.1 71 2.7 SW 11 13 6 7 1015.3 - 0.0
02/10:30pm 16.0 13.7 10.3 69 3.0 SW 13 15 7 8 1015.0 - 0.0
02/10:00pm 14.8 13.4 11.0 78 2.0 WSW 9 11 5 6 1014.6 - 0.0
02/09:30pm 15.7 14.1 11.4 75 2.3 SW 11 13 6 7 1014.6 - 0.0
02/09:00pm 15.1 15.1 11.0 76 2.2 ESE 2 7 1 4 1014.5 1014.4 0.0
02/08:30pm 16.0 14.8 10.3 69 3.0 E 7 7 4 4 1014.5 - 0.0
02/08:00pm 16.5 14.5 10.0 65 3.4 E 11 15 6 8 1014.6 - 0.0
02/07:30pm 17.6 15.5 11.3 66 3.4 E 13 17 7 9 1014.5 - 0.0
02/07:00pm 18.3 15.3 10.7 61 4.1 E 17 20 9 11 1014.7 - 0.0
02/06:30pm 18.5 15.4 8.7 53 5.1 E 15 19 8 10 1014.5 - 0.0
02/06:00pm 19.5 15.1 6.5 42 6.5 E 19 26 10 14 1014.3 1014.2 0.0
02/05:30pm 20.6 16.0 3.9 33 8.0 ENE 17 22 9 12 1014.4 - 0.0
02/05:00pm 21.8 15.7 2.8 28 9.0 ENE 24 33 13 18 1014.2 - 0.0
02/04:30pm 23.1 16.3 3.2 27 9.6 ENE 28 33 15 18 1013.8 - 0.0
02/04:00pm 24.0 17.1 2.5 24 10.3 ENE 28 33 15 18 1013.7 - 0.0
02/03:30pm 25.0 19.6 2.3 22 10.9 ENE 20 30 11 16 1013.8 - 0.0
02/03:00pm 25.1 20.1 1.4 21 11.2 E 17 26 9 14 1013.9 1013.8 0.0
02/02:30pm 25.6 21.5 4.2 25 10.7 E 15 28 8 15 1014.2 - 0.0
02/02:00pm 24.7 20.6 2.1 23 10.8 ENE 13 19 7 10 1014.7 - 0.0
02/01:30pm 24.3 20.1 1.6 22 10.7 ENE 13 19 7 10 1015.5 - 0.0
02/01:00pm 24.3 20.7 2.7 24 10.4 E 11 17 6 9 1016.2 - 0.0
02/12:30pm 23.2 20.4 3.0 26 9.7 S 7 13 4 7 1017.1 - 0.0
02/12:00pm 21.9 18.4 1.2 25 9.5 NNW 9 13 5 7 1017.6 1017.5 0.0
02/11:30am 21.3 17.6 2.2 28 8.9 ESE 11 20 6 11 1018.0 - 0.0
02/11:00am 20.4 17.0 1.9 29 8.5 S 9 15 5 8 1018.8 - 0.0
02/10:30am 19.6 16.8 1.8 30 8.1 SSE 6 11 3 6 1019.6 - 0.0
02/10:00am 17.9 15.6 2.6 36 7.0 W 4 7 2 4 1019.7 - 0.0
02/09:30am 16.5 14.2 4.6 45 5.6 S 6 11 3 6 1019.9 - 0.0
02/09:00am 14.5 12.9 4.6 51 4.6 W 2 9 1 5 1020.1 1020.0 0.0
02/08:30am 11.8 10.6 4.5 61 3.3 CALM 0 0 0 0 1020.0 - 0.0
02/08:00am 10.3 8.6 3.9 64 2.8 S 2 6 1 3 1019.8 - 0.0
02/07:30am 7.6 6.3 3.9 77 1.6 CALM 0 0 0 0 1019.4 - 0.0
02/07:00am 5.4 3.4 2.4 81 1.2 SSE 2 7 1 4 1019.2 - 0.0
02/06:30am 3.1 1.0 1.5 89 0.6 SSE 2 6 1 3 1018.9 - 0.0
02/06:00am 3.4 1.7 2.1 91 0.5 CALM 0 0 0 0 1018.5 1018.4 0.0
02/05:30am 1.9 0.0 0.8 92 0.4 CALM 0 0 0 0 1018.2 - 0.0
02/05:00am 1.6 -0.4 0.2 90 0.5 CALM 0 0 0 0 1017.6 - 0.0
02/04:30am 1.4 -1.0 -0.3 88 0.6 SSW 2 9 1 5 1017.4 - 0.0
02/04:00am 2.6 -1.1 0.2 84 0.9 SSW 9 9 5 5 1017.3 - 0.0
02/03:30am 2.0 -1.4 -0.5 83 0.9 SSE 7 9 4 5 1017.1 - 0.0
02/03:00am 1.7 -0.3 0.1 89 0.6 CALM 0 0 0 0 1017.3 1017.2 0.0
02/02:30am 3.2 1.3 0.6 83 1.0 CALM 0 0 0 0 1017.4 - 0.0
02/02:00am 4.0 0.8 0.6 78 1.3 SSW 7 7 4 4 1017.2 - 0.0
02/01:30am 3.4 1.6 1.1 85 0.9 CALM 0 0 0 0 1017.3 - 0.0
02/01:00am 4.5 1.2 0.3 74 1.6 NW 7 11 4 6 1017.2 - 0.0
02/12:30am 3.6 1.3 0.4 79 1.2 NNW 2 7 1 4 1017.2 - 0.0
02/12:00am 6.2 3.0 -0.3 63 2.5 S 6 9 3 5 1017.0 1016.9 0.0
 
Date/Time
EST
Tmp

°C
App
Tmp
°C
Dew
Point
°C
Rel
Hum
%
Delta-T

°C
Wind Press
QNH
hPa
Press
MSL
hPa
Rain
since
9 am
mm
Dir
 
Spd
km/h
Gust
km/h
Spd
kts
Gust
kts
01/11:30pm 5.9 2.9 1.1 71 1.9 S 6 7 3 4 1017.0 - 0.0
01/11:00pm 6.5 3.3 0.6 66 2.3 S 7 11 4 6 1017.0 - 0.0
01/10:30pm 7.3 5.4 0.5 62 2.7 CALM 0 0 0 0 1016.9 - 0.0
01/10:00pm 7.9 6.0 0.3 58 3.0 CALM 0 0 0 0 1016.6 - 0.0
01/09:30pm 9.4 7.2 -1.2 47 4.1 CALM 0 0 0 0 1016.3 - 0.0
01/09:00pm 10.6 6.5 -0.4 46 4.4 SW 11 13 6 7 1016.1 1016.0 0.0
01/08:30pm 12.2 8.7 -2.9 35 5.8 WNW 6 7 3 4 1015.8 - 0.0
01/08:00pm 14.1 10.2 -4.3 27 7.0 NNW 7 9 4 5 1015.6 - 0.0
01/07:30pm 14.0 10.5 -3.2 30 6.7 NE 6 9 3 5 1015.3 - 0.0
01/07:00pm 17.5 12.1 -4.7 21 8.7 W 15 19 8 10 1014.9 - 0.0
01/06:30pm 17.4 11.9 -5.4 20 8.8 W 15 19 8 10 1014.6 - 0.0
01/06:00pm 18.5 13.1 -4.8 20 9.2 W 15 17 8 9 1014.2 1014.1 0.0
01/05:30pm 20.6 14.8 -8.4 13 10.9 W 15 19 8 10 1013.8 - 0.0
01/05:00pm 23.0 16.3 -10.5 10 12.4 W 19 26 10 14 1013.5 - 0.0
01/04:30pm 23.9 16.4 -13.3 7 13.2 W 22 35 12 19 1013.3 - 0.0
01/04:00pm 24.5 15.9 -14.2 7 13.6 W 28 37 15 20 1013.1 - 0.0
01/03:30pm 24.6 16.4 -13.7 7 13.6 W 26 37 14 20 1013.0 - 0.0
01/03:00pm 25.4 17.7 -11.7 8 13.8 W 24 33 13 18 1013.0 1012.9 0.0
01/02:30pm 24.9 16.9 -9.9 9 13.3 W 26 37 14 20 1013.3 - 0.0
01/02:00pm 24.9 16.5 -10.6 9 13.4 W 28 39 15 21 1013.5 - 0.0
01/01:30pm 24.8 17.1 -11.1 8 13.4 W 24 33 13 18 1013.8 - 0.0
01/01:00pm 24.7 15.7 -13.2 7 13.6 WNW 30 41 16 22 1014.1 - 0.0
01/12:30pm 23.7 17.0 -8.0 11 12.4 W 20 33 11 18 1014.4 - 0.0
01/12:00pm 22.9 15.2 -6.3 13 11.7 WNW 26 30 14 16 1015.0 1014.9 0.0
01/11:30am 22.7 16.4 -3.7 17 11.1 WSW 20 26 11 14 1015.6 - 0.0
01/11:00am 22.3 16.6 -1.1 21 10.3 W 19 26 10 14 1016.2 - 0.0
01/10:30am 21.1 17.0 0.0 24 9.4 W 11 19 6 10 1016.8 - 0.0
01/10:00am 19.1 16.2 4.5 38 7.0 N 9 15 5 8 1017.1 - 0.0
01/09:30am 17.6 14.3 4.5 42 6.2 N 11 17 6 9 1017.3 - 0.0
01/09:00am 16.9 13.2 4.6 44 5.8 NW 13 20 7 11 1017.5 1017.4 0.0
01/08:30am 13.9 12.2 6.1 59 3.7 NW 4 9 2 5 1017.7 - 0.0
01/08:00am 10.9 10.0 6.2 73 2.2 CALM 0 0 0 0 1017.5 - 0.0
01/07:30am 8.3 7.3 5.6 83 1.2 CALM 0 0 0 0 1017.2 - 0.0

Latest Capital City Observations: Canberra | Sydney | Melbourne | Brisbane | Adelaide | Perth | Hobart | Darwin

Other Formats:

Comma delimited format used in spreadsheet applications
http://www.bom.gov.au/fwo/IDQ60901/IDQ60901.94568.axf

JavaScript Object Notation format (JSON) in row-major order
http://www.bom.gov.au/fwo/IDQ60901/IDQ60901.94568.json